Airfield :
LOGIN :

Register | Disclaimer

   EN    FR    IT 

 










Legend :    VFR   Marginal VFR   IFR   Intensive IFR   Very Intensive IFR
Visi :
Ceiling :
>= 8 km
>= 3000ft
5 to 8 km
1000 to 3000 ft
1500m to 5 km
500 to 1000 ft
800 to 1500m
200 to 500 ft
< 800m
< 200 ft
Symbols :   Thunderstorms  Fog  Heavy snow  Heavy precipitations  Wind > 20 kt
SIGMETs :     Misc.  Thunderstorms  Icing  Turbulence  Mountain Waves  Volcanic Ashes






- Airport Elevation : 94 ft
- IATA code : QLT


LIRL - Latina Casale (military)

CURRENT METAR :
  • 190655Z /////KT CAVOK 25/18 Q1017

EXPIRED METARs :
  • 190555Z /////KT CAVOK 22/20 Q1016 RMK OVC SCT100 BKN200 MON LIB NC VIS MIN 9999 WIND THR12 /////KT WIND THR30 18001KT BLU
  • 190455Z /////KT CAVOK 20/19 Q1016 RMK BKN BKN200 MON LIB VAR RAPID VIS MIN 9999 WIND THR12 /////KT WIND THR30 03001KT BLU

TAF TAF LIRL
Valid from the 19 at 06:00 until the 19 at 15:00 UTC


190500Z 1906/1915 20005KT CAVOK



MET'MAP, your aeronautical weather chart ! - Copyright ORBIFLY December 2007 - Disclaimer

ORBIFLY MET'MAP TEAM :

Programming & Development : Alexandra Zaïnal
Original concept : Baudouin d'Aumeries
Technical & hardware support : Manuel Goepfert
Assistance : Marc-Olivier Méhu




SOURCES & CREDITS :

   NOAA